sensor_id;sensor_type;location;lat;lon;timestamp;P1;durP1;ratioP1;P2;durP2;ratioP2
38621;SDS011;24380;51.132;5.360;2023-04-03T00:01:11;8.18;;;5.67;;
38621;SDS011;24380;51.132;5.360;2023-04-03T00:03:39;10.13;;;5.50;;
38621;SDS011;24380;51.132;5.360;2023-04-03T00:06:07;7.55;;;5.53;;
38621;SDS011;24380;51.132;5.360;2023-04-03T00:08:37;8.23;;;4.85;;
38621;SDS011;24380;51.132;5.360;2023-04-03T00:11:06;7.92;;;5.40;;
38621;SDS011;24380;51.132;5.360;2023-04-03T00:13:34;7.97;;;5.33;;
38621;SDS011;24380;51.132;5.360;2023-04-03T00:16:02;10.00;;;5.65;;
38621;SDS011;24380;51.132;5.360;2023-04-03T00:18:30;7.83;;;5.90;;
38621;SDS011;24380;51.132;5.360;2023-04-03T00:20:57;10.03;;;6.12;;
38621;SDS011;24380;51.132;5.360;2023-04-03T00:23:25;7.35;;;5.80;;
38621;SDS011;24380;51.132;5.360;2023-04-03T00:25:53;8.58;;;5.90;;
38621;SDS011;24380;51.132;5.360;2023-04-03T00:28:21;8.40;;;5.45;;
38621;SDS011;24380;51.132;5.360;2023-04-03T00:30:49;7.53;;;5.35;;
38621;SDS011;24380;51.132;5.360;2023-04-03T00:33:17;11.40;;;6.08;;
38621;SDS011;24380;51.132;5.360;2023-04-03T00:35:47;8.38;;;5.95;;
38621;SDS011;24380;51.132;5.360;2023-04-03T00:38:15;7.90;;;5.90;;
38621;SDS011;24380;51.132;5.360;2023-04-03T00:40:44;7.78;;;5.50;;
38621;SDS011;24380;51.132;5.360;2023-04-03T00:43:20;10.03;;;6.37;;
38621;SDS011;24380;51.132;5.360;2023-04-03T00:45:53;11.53;;;6.17;;
38621;SDS011;24380;51.132;5.360;2023-04-03T00:48:46;9.48;;;6.05;;
38621;SDS011;24380;51.132;5.360;2023-04-03T00:51:16;8.15;;;5.87;;
38621;SDS011;24380;51.132;5.360;2023-04-03T00:53:47;10.08;;;6.30;;
38621;SDS011;24380;51.132;5.360;2023-04-03T00:56:21;8.85;;;6.20;;
38621;SDS011;24380;51.132;5.360;2023-04-03T00:59:10;7.80;;;5.78;;
38621;SDS011;24380;51.132;5.360;2023-04-03T01:01:36;9.98;;;6.60;;
38621;SDS011;24380;51.132;5.360;2023-04-03T01:04:04;10.45;;;6.42;;
38621;SDS011;24380;51.132;5.360;2023-04-03T01:06:33;8.10;;;6.62;;
38621;SDS011;24380;51.132;5.360;2023-04-03T01:11:31;10.82;;;6.30;;
38621;SDS011;24380;51.132;5.360;2023-04-03T01:13:58;12.47;;;6.40;;
38621;SDS011;24380;51.132;5.360;2023-04-03T01:16:27;10.50;;;6.40;;
38621;SDS011;24380;51.132;5.360;2023-04-03T01:18:57;13.25;;;6.72;;
38621;SDS011;24380;51.132;5.360;2023-04-03T01:21:46;13.68;;;6.80;;
38621;SDS011;24380;51.132;5.360;2023-04-03T01:26:45;12.33;;;6.65;;
38621;SDS011;24380;51.132;5.360;2023-04-03T01:29:15;11.00;;;6.95;;
38621;SDS011;24380;51.132;5.360;2023-04-03T01:34:19;10.23;;;7.35;;
38621;SDS011;24380;51.132;5.360;2023-04-03T01:36:46;11.12;;;7.53;;
38621;SDS011;24380;51.132;5.360;2023-04-03T01:39:14;8.90;;;6.58;;
38621;SDS011;24380;51.132;5.360;2023-04-03T01:41:42;7.62;;;6.12;;
38621;SDS011;24380;51.132;5.360;2023-04-03T01:44:09;9.43;;;6.45;;
38621;SDS011;24380;51.132;5.360;2023-04-03T01:46:37;11.73;;;7.17;;
38621;SDS011;24380;51.132;5.360;2023-04-03T01:49:05;10.15;;;6.72;;
38621;SDS011;24380;51.132;5.360;2023-04-03T01:51:32;9.63;;;6.35;;
38621;SDS011;24380;51.132;5.360;2023-04-03T01:54:00;9.20;;;6.58;;
38621;SDS011;24380;51.132;5.360;2023-04-03T01:56:27;11.90;;;7.70;;
38621;SDS011;24380;51.132;5.360;2023-04-03T01:58:55;10.55;;;6.75;;
38621;SDS011;24380;51.132;5.360;2023-04-03T02:01:22;12.23;;;8.38;;
38621;SDS011;24380;51.132;5.360;2023-04-03T02:03:51;12.28;;;7.00;;
38621;SDS011;24380;51.132;5.360;2023-04-03T02:06:19;8.90;;;6.58;;
38621;SDS011;24380;51.132;5.360;2023-04-03T02:08:46;9.10;;;6.53;;
38621;SDS011;24380;51.132;5.360;2023-04-03T02:11:14;10.23;;;7.45;;
38621;SDS011;24380;51.132;5.360;2023-04-03T02:13:41;13.08;;;7.60;;
38621;SDS011;24380;51.132;5.360;2023-04-03T02:16:09;11.18;;;7.50;;
38621;SDS011;24380;51.132;5.360;2023-04-03T02:18:38;10.90;;;7.75;;
38621;SDS011;24380;51.132;5.360;2023-04-03T02:21:06;11.18;;;7.40;;
38621;SDS011;24380;51.132;5.360;2023-04-03T02:23:34;9.93;;;8.08;;
38621;SDS011;24380;51.132;5.360;2023-04-03T02:26:07;11.97;;;8.33;;
38621;SDS011;24380;51.132;5.360;2023-04-03T02:28:36;10.78;;;8.48;;
38621;SDS011;24380;51.132;5.360;2023-04-03T02:31:04;15.18;;;10.10;;
38621;SDS011;24380;51.132;5.360;2023-04-03T02:33:32;20.70;;;12.10;;
38621;SDS011;24380;51.132;5.360;2023-04-03T02:36:03;22.48;;;13.18;;
38621;SDS011;24380;51.132;5.360;2023-04-03T02:38:31;16.55;;;12.15;;
38621;SDS011;24380;51.132;5.360;2023-04-03T02:41:09;16.20;;;10.45;;
38621;SDS011;24380;51.132;5.360;2023-04-03T02:43:34;17.17;;;9.68;;
38621;SDS011;24380;51.132;5.360;2023-04-03T02:46:02;16.27;;;9.18;;
38621;SDS011;24380;51.132;5.360;2023-04-03T02:48:29;12.03;;;9.00;;
38621;SDS011;24380;51.132;5.360;2023-04-03T02:50:57;13.75;;;9.20;;
38621;SDS011;24380;51.132;5.360;2023-04-03T02:53:24;16.05;;;9.63;;
38621;SDS011;24380;51.132;5.360;2023-04-03T02:55:52;16.87;;;9.73;;
38621;SDS011;24380;51.132;5.360;2023-04-03T03:00:48;12.10;;;8.58;;
38621;SDS011;24380;51.132;5.360;2023-04-03T03:03:16;14.78;;;9.40;;
38621;SDS011;24380;51.132;5.360;2023-04-03T03:05:44;13.50;;;9.13;;
38621;SDS011;24380;51.132;5.360;2023-04-03T03:08:13;11.97;;;9.23;;
38621;SDS011;24380;51.132;5.360;2023-04-03T03:10:41;13.68;;;9.40;;
38621;SDS011;24380;51.132;5.360;2023-04-03T03:13:08;14.68;;;8.95;;
38621;SDS011;24380;51.132;5.360;2023-04-03T03:15:36;14.28;;;9.53;;
38621;SDS011;24380;51.132;5.360;2023-04-03T03:18:03;11.48;;;8.70;;
38621;SDS011;24380;51.132;5.360;2023-04-03T03:20:31;12.15;;;9.10;;
38621;SDS011;24380;51.132;5.360;2023-04-03T03:22:59;12.93;;;9.50;;
38621;SDS011;24380;51.132;5.360;2023-04-03T03:25:26;13.38;;;10.15;;
38621;SDS011;24380;51.132;5.360;2023-04-03T03:27:54;15.93;;;10.68;;
38621;SDS011;24380;51.132;5.360;2023-04-03T03:30:21;17.25;;;10.53;;
38621;SDS011;24380;51.132;5.360;2023-04-03T03:32:49;15.18;;;10.45;;
38621;SDS011;24380;51.132;5.360;2023-04-03T03:35:16;13.98;;;11.08;;
38621;SDS011;24380;51.132;5.360;2023-04-03T03:37:44;14.90;;;10.43;;
38621;SDS011;24380;51.132;5.360;2023-04-03T03:40:11;13.75;;;9.80;;
38621;SDS011;24380;51.132;5.360;2023-04-03T03:42:39;13.00;;;9.98;;
38621;SDS011;24380;51.132;5.360;2023-04-03T03:45:07;12.23;;;9.83;;
38621;SDS011;24380;51.132;5.360;2023-04-03T03:47:35;11.85;;;9.15;;
38621;SDS011;24380;51.132;5.360;2023-04-03T03:50:03;16.80;;;10.75;;
38621;SDS011;24380;51.132;5.360;2023-04-03T03:52:31;15.65;;;10.98;;
38621;SDS011;24380;51.132;5.360;2023-04-03T03:54:58;17.92;;;10.45;;
38621;SDS011;24380;51.132;5.360;2023-04-03T03:57:26;18.12;;;11.30;;
38621;SDS011;24380;51.132;5.360;2023-04-03T03:59:54;16.97;;;11.28;;
38621;SDS011;24380;51.132;5.360;2023-04-03T04:02:22;16.62;;;11.78;;
38621;SDS011;24380;51.132;5.360;2023-04-03T04:04:49;17.85;;;11.85;;
38621;SDS011;24380;51.132;5.360;2023-04-03T04:07:17;18.82;;;11.60;;
38621;SDS011;24380;51.132;5.360;2023-04-03T04:09:44;18.10;;;12.70;;
38621;SDS011;24380;51.132;5.360;2023-04-03T04:12:12;18.80;;;12.58;;
38621;SDS011;24380;51.132;5.360;2023-04-03T04:14:39;19.60;;;13.10;;
38621;SDS011;24380;51.132;5.360;2023-04-03T04:17:07;18.55;;;12.60;;
38621;SDS011;24380;51.132;5.360;2023-04-03T04:19:34;18.70;;;12.53;;
38621;SDS011;24380;51.132;5.360;2023-04-03T04:22:02;20.08;;;11.78;;
38621;SDS011;24380;51.132;5.360;2023-04-03T04:24:29;18.82;;;12.07;;
38621;SDS011;24380;51.132;5.360;2023-04-03T04:26:57;18.92;;;11.88;;
38621;SDS011;24380;51.132;5.360;2023-04-03T04:29:24;17.00;;;11.48;;
38621;SDS011;24380;51.132;5.360;2023-04-03T04:31:52;18.32;;;12.35;;
38621;SDS011;24380;51.132;5.360;2023-04-03T04:34:20;18.92;;;11.83;;
38621;SDS011;24380;51.132;5.360;2023-04-03T04:36:47;19.00;;;12.13;;
38621;SDS011;24380;51.132;5.360;2023-04-03T04:39:15;18.40;;;11.70;;
38621;SDS011;24380;51.132;5.360;2023-04-03T04:41:42;18.75;;;11.85;;
38621;SDS011;24380;51.132;5.360;2023-04-03T04:44:10;20.12;;;11.88;;
38621;SDS011;24380;51.132;5.360;2023-04-03T04:46:38;17.50;;;12.65;;
38621;SDS011;24380;51.132;5.360;2023-04-03T04:49:05;16.37;;;11.57;;
38621;SDS011;24380;51.132;5.360;2023-04-03T04:51:33;17.32;;;11.65;;
38621;SDS011;24380;51.132;5.360;2023-04-03T04:54:00;16.75;;;11.43;;
38621;SDS011;24380;51.132;5.360;2023-04-03T04:56:28;15.32;;;11.33;;
38621;SDS011;24380;51.132;5.360;2023-04-03T04:58:56;15.03;;;10.45;;
38621;SDS011;24380;51.132;5.360;2023-04-03T05:01:23;12.68;;;10.43;;
38621;SDS011;24380;51.132;5.360;2023-04-03T05:03:51;16.90;;;11.88;;
38621;SDS011;24380;51.132;5.360;2023-04-03T05:06:19;17.07;;;11.10;;
38621;SDS011;24380;51.132;5.360;2023-04-03T05:08:46;16.40;;;11.40;;
38621;SDS011;24380;51.132;5.360;2023-04-03T05:11:14;13.25;;;10.90;;
38621;SDS011;24380;51.132;5.360;2023-04-03T05:13:42;15.70;;;10.80;;
38621;SDS011;24380;51.132;5.360;2023-04-03T05:16:09;17.20;;;11.28;;
38621;SDS011;24380;51.132;5.360;2023-04-03T05:18:37;14.55;;;10.63;;
38621;SDS011;24380;51.132;5.360;2023-04-03T05:21:04;14.73;;;11.08;;
38621;SDS011;24380;51.132;5.360;2023-04-03T05:23:32;15.55;;;10.72;;
38621;SDS011;24380;51.132;5.360;2023-04-03T05:28:35;17.23;;;10.48;;
38621;SDS011;24380;51.132;5.360;2023-04-03T05:31:03;15.58;;;10.32;;
38621;SDS011;24380;51.132;5.360;2023-04-03T05:33:30;14.45;;;9.98;;
38621;SDS011;24380;51.132;5.360;2023-04-03T05:36:01;13.20;;;9.88;;
38621;SDS011;24380;51.132;5.360;2023-04-03T05:38:31;15.68;;;9.55;;
38621;SDS011;24380;51.132;5.360;2023-04-03T05:40:58;13.70;;;9.55;;
38621;SDS011;24380;51.132;5.360;2023-04-03T05:43:26;14.65;;;9.20;;
38621;SDS011;24380;51.132;5.360;2023-04-03T05:45:53;13.45;;;9.18;;
38621;SDS011;24380;51.132;5.360;2023-04-03T05:48:21;11.97;;;9.15;;
38621;SDS011;24380;51.132;5.360;2023-04-03T05:50:49;11.85;;;8.63;;
38621;SDS011;24380;51.132;5.360;2023-04-03T05:53:21;15.20;;;8.75;;
38621;SDS011;24380;51.132;5.360;2023-04-03T05:55:50;14.75;;;8.80;;
38621;SDS011;24380;51.132;5.360;2023-04-03T05:58:17;13.03;;;8.40;;
38621;SDS011;24380;51.132;5.360;2023-04-03T06:00:45;12.13;;;8.75;;
38621;SDS011;24380;51.132;5.360;2023-04-03T06:03:12;11.08;;;7.80;;
38621;SDS011;24380;51.132;5.360;2023-04-03T06:05:40;11.90;;;7.90;;
38621;SDS011;24380;51.132;5.360;2023-04-03T06:08:08;11.50;;;7.45;;
38621;SDS011;24380;51.132;5.360;2023-04-03T06:10:36;15.35;;;7.95;;
38621;SDS011;24380;51.132;5.360;2023-04-03T06:13:03;12.37;;;7.40;;
38621;SDS011;24380;51.132;5.360;2023-04-03T06:15:31;11.83;;;7.40;;
38621;SDS011;24380;51.132;5.360;2023-04-03T06:17:59;10.30;;;6.78;;
38621;SDS011;24380;51.132;5.360;2023-04-03T06:20:27;12.37;;;6.25;;
38621;SDS011;24380;51.132;5.360;2023-04-03T06:22:54;12.53;;;6.40;;
38621;SDS011;24380;51.132;5.360;2023-04-03T06:25:22;11.38;;;6.25;;
38621;SDS011;24380;51.132;5.360;2023-04-03T06:30:25;10.18;;;5.55;;
38621;SDS011;24380;51.132;5.360;2023-04-03T06:32:53;7.15;;;5.03;;
38621;SDS011;24380;51.132;5.360;2023-04-03T06:35:21;7.35;;;4.80;;
38621;SDS011;24380;51.132;5.360;2023-04-03T06:37:49;6.70;;;4.50;;
38621;SDS011;24380;51.132;5.360;2023-04-03T06:40:18;8.63;;;4.65;;
38621;SDS011;24380;51.132;5.360;2023-04-03T06:42:47;7.60;;;4.12;;
38621;SDS011;24380;51.132;5.360;2023-04-03T06:45:15;7.30;;;4.53;;
38621;SDS011;24380;51.132;5.360;2023-04-03T06:47:43;10.72;;;4.45;;
38621;SDS011;24380;51.132;5.360;2023-04-03T06:50:11;8.28;;;4.17;;
38621;SDS011;24380;51.132;5.360;2023-04-03T06:52:40;7.00;;;4.12;;
38621;SDS011;24380;51.132;5.360;2023-04-03T06:55:08;7.83;;;4.05;;
38621;SDS011;24380;51.132;5.360;2023-04-03T06:57:36;6.47;;;3.70;;
38621;SDS011;24380;51.132;5.360;2023-04-03T07:00:05;10.75;;;4.15;;
38621;SDS011;24380;51.132;5.360;2023-04-03T07:02:33;11.00;;;3.67;;
38621;SDS011;24380;51.132;5.360;2023-04-03T07:05:00;5.55;;;3.37;;
38621;SDS011;24380;51.132;5.360;2023-04-03T07:07:28;5.87;;;3.72;;
38621;SDS011;24380;51.132;5.360;2023-04-03T07:09:56;6.92;;;3.30;;
38621;SDS011;24380;51.132;5.360;2023-04-03T07:12:24;7.08;;;3.40;;
38621;SDS011;24380;51.132;5.360;2023-04-03T07:14:52;5.42;;;2.90;;
38621;SDS011;24380;51.132;5.360;2023-04-03T07:17:19;7.00;;;3.27;;
38621;SDS011;24380;51.132;5.360;2023-04-03T07:19:46;8.03;;;3.33;;
38621;SDS011;24380;51.132;5.360;2023-04-03T07:22:14;5.78;;;3.00;;
38621;SDS011;24380;51.132;5.360;2023-04-03T07:24:43;6.50;;;2.90;;
38621;SDS011;24380;51.132;5.360;2023-04-03T07:27:11;6.97;;;3.13;;
38621;SDS011;24380;51.132;5.360;2023-04-03T07:29:39;5.33;;;3.05;;
38621;SDS011;24380;51.132;5.360;2023-04-03T07:32:08;6.40;;;3.00;;
38621;SDS011;24380;51.132;5.360;2023-04-03T07:34:36;5.37;;;2.72;;
38621;SDS011;24380;51.132;5.360;2023-04-03T07:37:04;6.08;;;2.77;;
38621;SDS011;24380;51.132;5.360;2023-04-03T07:39:32;7.92;;;2.95;;
38621;SDS011;24380;51.132;5.360;2023-04-03T07:42:00;5.67;;;2.80;;
38621;SDS011;24380;51.132;5.360;2023-04-03T07:44:27;6.22;;;2.50;;
38621;SDS011;24380;51.132;5.360;2023-04-03T07:46:55;6.42;;;2.90;;
38621;SDS011;24380;51.132;5.360;2023-04-03T07:49:23;5.83;;;2.37;;
38621;SDS011;24380;51.132;5.360;2023-04-03T07:51:51;6.80;;;2.47;;
38621;SDS011;24380;51.132;5.360;2023-04-03T07:54:19;4.85;;;2.35;;
38621;SDS011;24380;51.132;5.360;2023-04-03T07:56:46;3.70;;;1.90;;
38621;SDS011;24380;51.132;5.360;2023-04-03T07:59:14;4.75;;;1.90;;
38621;SDS011;24380;51.132;5.360;2023-04-03T08:01:42;4.70;;;2.00;;
38621;SDS011;24380;51.132;5.360;2023-04-03T08:04:09;5.17;;;2.10;;
38621;SDS011;24380;51.132;5.360;2023-04-03T08:06:37;5.35;;;2.10;;
38621;SDS011;24380;51.132;5.360;2023-04-03T08:09:04;4.95;;;2.00;;
38621;SDS011;24380;51.132;5.360;2023-04-03T08:11:32;5.50;;;2.40;;
38621;SDS011;24380;51.132;5.360;2023-04-03T08:13:59;3.98;;;2.40;;
38621;SDS011;24380;51.132;5.360;2023-04-03T08:16:28;5.70;;;2.75;;
38621;SDS011;24380;51.132;5.360;2023-04-03T08:18:55;5.97;;;2.40;;
38621;SDS011;24380;51.132;5.360;2023-04-03T08:21:23;4.42;;;2.20;;
38621;SDS011;24380;51.132;5.360;2023-04-03T08:23:51;5.53;;;2.30;;
38621;SDS011;24380;51.132;5.360;2023-04-03T08:26:19;5.72;;;2.30;;
38621;SDS011;24380;51.132;5.360;2023-04-03T08:28:48;3.42;;;2.15;;
38621;SDS011;24380;51.132;5.360;2023-04-03T08:31:17;5.30;;;2.22;;
38621;SDS011;24380;51.132;5.360;2023-04-03T08:33:46;6.37;;;2.52;;
38621;SDS011;24380;51.132;5.360;2023-04-03T08:36:24;5.40;;;2.40;;
38621;SDS011;24380;51.132;5.360;2023-04-03T08:38:54;4.90;;;1.98;;
38621;SDS011;24380;51.132;5.360;2023-04-03T08:41:31;3.52;;;1.90;;
38621;SDS011;24380;51.132;5.360;2023-04-03T08:44:12;4.20;;;2.05;;
38621;SDS011;24380;51.132;5.360;2023-04-03T08:49:43;4.85;;;2.65;;
38621;SDS011;24380;51.132;5.360;2023-04-03T08:52:18;6.10;;;2.17;;
38621;SDS011;24380;51.132;5.360;2023-04-03T08:54:53;3.45;;;2.10;;
38621;SDS011;24380;51.132;5.360;2023-04-03T08:57:32;5.05;;;2.40;;
38621;SDS011;24380;51.132;5.360;2023-04-03T08:59:57;5.55;;;2.72;;
38621;SDS011;24380;51.132;5.360;2023-04-03T09:02:33;5.12;;;2.40;;
38621;SDS011;24380;51.132;5.360;2023-04-03T09:05:12;8.35;;;3.10;;
38621;SDS011;24380;51.132;5.360;2023-04-03T09:07:53;6.67;;;2.22;;
38621;SDS011;24380;51.132;5.360;2023-04-03T09:10:19;6.95;;;2.02;;
38621;SDS011;24380;51.132;5.360;2023-04-03T09:15:21;7.78;;;2.42;;
38621;SDS011;24380;51.132;5.360;2023-04-03T09:18:11;5.37;;;1.87;;
38621;SDS011;24380;51.132;5.360;2023-04-03T09:20:56;6.67;;;2.10;;
38621;SDS011;24380;51.132;5.360;2023-04-03T09:23:49;3.60;;;2.10;;
38621;SDS011;24380;51.132;5.360;2023-04-03T09:26:23;3.85;;;1.82;;
38621;SDS011;24380;51.132;5.360;2023-04-03T09:28:56;5.70;;;1.92;;
38621;SDS011;24380;51.132;5.360;2023-04-03T09:31:27;5.08;;;1.70;;
38621;SDS011;24380;51.132;5.360;2023-04-03T09:36:42;3.25;;;1.57;;
38621;SDS011;24380;51.132;5.360;2023-04-03T09:39:18;4.22;;;1.60;;
38621;SDS011;24380;51.132;5.360;2023-04-03T09:44:31;3.58;;;1.80;;
38621;SDS011;24380;51.132;5.360;2023-04-03T09:47:24;3.77;;;1.62;;
38621;SDS011;24380;51.132;5.360;2023-04-03T09:49:47;3.37;;;1.50;;
38621;SDS011;24380;51.132;5.360;2023-04-03T09:52:18;4.47;;;1.80;;
38621;SDS011;24380;51.132;5.360;2023-04-03T09:54:51;2.80;;;1.60;;
38621;SDS011;24380;51.132;5.360;2023-04-03T09:57:18;2.87;;;1.37;;
38621;SDS011;24380;51.132;5.360;2023-04-03T10:04:57;2.67;;;1.22;;
38621;SDS011;24380;51.132;5.360;2023-04-03T10:07:32;2.90;;;1.45;;
38621;SDS011;24380;51.132;5.360;2023-04-03T10:10:15;3.20;;;1.70;;
38621;SDS011;24380;51.132;5.360;2023-04-03T10:12:32;2.17;;;1.35;;
38621;SDS011;24380;51.132;5.360;2023-04-03T10:15:00;4.80;;;1.30;;
38621;SDS011;24380;51.132;5.360;2023-04-03T10:17:37;4.10;;;1.82;;
38621;SDS011;24380;51.132;5.360;2023-04-03T10:23:18;1.95;;;1.30;;
38621;SDS011;24380;51.132;5.360;2023-04-03T10:25:59;2.50;;;1.40;;
38621;SDS011;24380;51.132;5.360;2023-04-03T10:28:52;2.50;;;1.62;;
38621;SDS011;24380;51.132;5.360;2023-04-03T10:31:23;2.55;;;1.50;;
38621;SDS011;24380;51.132;5.360;2023-04-03T10:36:45;3.58;;;1.07;;
38621;SDS011;24380;51.132;5.360;2023-04-03T10:39:39;1.42;;;1.10;;
38621;SDS011;24380;51.132;5.360;2023-04-03T10:42:18;2.72;;;1.37;;
38621;SDS011;24380;51.132;5.360;2023-04-03T10:56:11;4.70;;;1.40;;
38621;SDS011;24380;51.132;5.360;2023-04-03T10:58:44;3.62;;;1.10;;
38621;SDS011;24380;51.132;5.360;2023-04-03T11:01:19;3.15;;;1.10;;
38621;SDS011;24380;51.132;5.360;2023-04-03T11:03:45;2.98;;;1.32;;
38621;SDS011;24380;51.132;5.360;2023-04-03T11:06:15;2.70;;;1.35;;
38621;SDS011;24380;51.132;5.360;2023-04-03T11:08:53;1.98;;;1.40;;
38621;SDS011;24380;51.132;5.360;2023-04-03T11:11:21;4.00;;;1.40;;
38621;SDS011;24380;51.132;5.360;2023-04-03T11:16:35;3.62;;;1.50;;
38621;SDS011;24380;51.132;5.360;2023-04-03T11:19:12;3.40;;;1.55;;
38621;SDS011;24380;51.132;5.360;2023-04-03T11:21:52;4.55;;;1.55;;
38621;SDS011;24380;51.132;5.360;2023-04-03T11:24:22;3.35;;;1.25;;
38621;SDS011;24380;51.132;5.360;2023-04-03T11:26:52;3.10;;;1.40;;
38621;SDS011;24380;51.132;5.360;2023-04-03T11:29:26;2.62;;;1.70;;
38621;SDS011;24380;51.132;5.360;2023-04-03T11:32:10;2.30;;;1.52;;
38621;SDS011;24380;51.132;5.360;2023-04-03T11:34:45;2.47;;;1.40;;
38621;SDS011;24380;51.132;5.360;2023-04-03T11:37:31;1.98;;;1.30;;
38621;SDS011;24380;51.132;5.360;2023-04-03T11:45:53;2.95;;;1.40;;
38621;SDS011;24380;51.132;5.360;2023-04-03T11:53:46;2.83;;;1.42;;
38621;SDS011;24380;51.132;5.360;2023-04-03T12:01:50;4.03;;;1.42;;
38621;SDS011;24380;51.132;5.360;2023-04-03T12:04:25;2.80;;;1.77;;
38621;SDS011;24380;51.132;5.360;2023-04-03T12:07:01;3.72;;;1.45;;
38621;SDS011;24380;51.132;5.360;2023-04-03T12:17:54;1.98;;;1.30;;
38621;SDS011;24380;51.132;5.360;2023-04-03T12:23:24;3.87;;;1.40;;
38621;SDS011;24380;51.132;5.360;2023-04-03T12:26:05;3.47;;;1.57;;
38621;SDS011;24380;51.132;5.360;2023-04-03T12:28:45;4.97;;;1.60;;
38621;SDS011;24380;51.132;5.360;2023-04-03T12:31:14;3.02;;;1.17;;
38621;SDS011;24380;51.132;5.360;2023-04-03T12:36:15;6.05;;;1.25;;
38621;SDS011;24380;51.132;5.360;2023-04-03T12:38:56;1.92;;;1.20;;
38621;SDS011;24380;51.132;5.360;2023-04-03T12:41:38;5.40;;;1.50;;
38621;SDS011;24380;51.132;5.360;2023-04-03T12:46:55;1.42;;;1.12;;
38621;SDS011;24380;51.132;5.360;2023-04-03T12:51:57;2.83;;;1.15;;
38621;SDS011;24380;51.132;5.360;2023-04-03T12:54:30;2.27;;;1.20;;
38621;SDS011;24380;51.132;5.360;2023-04-03T12:59:41;3.07;;;1.30;;
38621;SDS011;24380;51.132;5.360;2023-04-03T13:02:15;3.55;;;1.20;;
38621;SDS011;24380;51.132;5.360;2023-04-03T13:04:43;1.32;;;1.05;;
38621;SDS011;24380;51.132;5.360;2023-04-03T13:07:23;6.37;;;1.22;;
38621;SDS011;24380;51.132;5.360;2023-04-03T13:10:00;4.70;;;1.40;;
38621;SDS011;24380;51.132;5.360;2023-04-03T13:12:29;3.47;;;1.22;;
38621;SDS011;24380;51.132;5.360;2023-04-03T13:14:58;2.75;;;1.00;;
38621;SDS011;24380;51.132;5.360;2023-04-03T13:17:29;2.50;;;1.12;;
38621;SDS011;24380;51.132;5.360;2023-04-03T13:20:12;4.10;;;1.17;;
38621;SDS011;24380;51.132;5.360;2023-04-03T13:22:39;3.50;;;1.30;;
38621;SDS011;24380;51.132;5.360;2023-04-03T13:25:09;1.67;;;1.02;;
38621;SDS011;24380;51.132;5.360;2023-04-03T13:27:39;2.00;;;1.20;;
38621;SDS011;24380;51.132;5.360;2023-04-03T13:30:29;4.40;;;1.47;;
38621;SDS011;24380;51.132;5.360;2023-04-03T13:32:59;2.25;;;1.27;;
38621;SDS011;24380;51.132;5.360;2023-04-03T13:35:37;3.12;;;1.50;;
38621;SDS011;24380;51.132;5.360;2023-04-03T13:40:50;3.85;;;1.50;;
38621;SDS011;24380;51.132;5.360;2023-04-03T13:43:20;3.37;;;1.50;;
38621;SDS011;24380;51.132;5.360;2023-04-03T13:48:43;3.62;;;1.40;;
38621;SDS011;24380;51.132;5.360;2023-04-03T13:56:17;2.67;;;1.47;;
38621;SDS011;24380;51.132;5.360;2023-04-03T13:59:02;3.22;;;1.30;;
38621;SDS011;24380;51.132;5.360;2023-04-03T14:01:32;4.62;;;1.47;;
38621;SDS011;24380;51.132;5.360;2023-04-03T14:04:09;2.83;;;1.32;;
38621;SDS011;24380;51.132;5.360;2023-04-03T14:08:59;3.42;;;1.57;;
38621;SDS011;24380;51.132;5.360;2023-04-03T14:11:28;2.87;;;1.60;;
38621;SDS011;24380;51.132;5.360;2023-04-03T14:13:57;2.17;;;1.50;;
38621;SDS011;24380;51.132;5.360;2023-04-03T14:16:28;2.45;;;1.80;;
38621;SDS011;24380;51.132;5.360;2023-04-03T14:18:57;2.47;;;1.37;;
38621;SDS011;24380;51.132;5.360;2023-04-03T14:21:25;1.80;;;1.40;;
38621;SDS011;24380;51.132;5.360;2023-04-03T14:23:52;1.65;;;1.20;;
38621;SDS011;24380;51.132;5.360;2023-04-03T14:26:21;3.90;;;1.60;;
38621;SDS011;24380;51.132;5.360;2023-04-03T14:28:53;2.77;;;1.45;;
38621;SDS011;24380;51.132;5.360;2023-04-03T14:31:21;2.83;;;1.30;;
38621;SDS011;24380;51.132;5.360;2023-04-03T14:33:49;3.17;;;1.40;;
38621;SDS011;24380;51.132;5.360;2023-04-03T14:36:21;3.22;;;1.32;;
38621;SDS011;24380;51.132;5.360;2023-04-03T14:38:53;3.47;;;1.60;;
38621;SDS011;24380;51.132;5.360;2023-04-03T14:41:23;2.95;;;1.50;;
38621;SDS011;24380;51.132;5.360;2023-04-03T14:43:52;2.47;;;1.30;;
38621;SDS011;24380;51.132;5.360;2023-04-03T14:46:25;2.12;;;1.50;;
38621;SDS011;24380;51.132;5.360;2023-04-03T14:48:54;3.00;;;1.30;;
38621;SDS011;24380;51.132;5.360;2023-04-03T14:51:21;2.70;;;1.50;;
38621;SDS011;24380;51.132;5.360;2023-04-03T14:53:49;2.72;;;1.45;;
38621;SDS011;24380;51.132;5.360;2023-04-03T14:56:22;5.62;;;1.80;;
38621;SDS011;24380;51.132;5.360;2023-04-03T15:01:16;3.95;;;1.62;;
38621;SDS011;24380;51.132;5.360;2023-04-03T15:03:44;6.08;;;1.70;;
38621;SDS011;24380;51.132;5.360;2023-04-03T15:06:12;3.95;;;1.55;;
38621;SDS011;24380;51.132;5.360;2023-04-03T15:08:41;2.98;;;1.52;;
38621;SDS011;24380;51.132;5.360;2023-04-03T15:11:10;2.20;;;1.55;;
38621;SDS011;24380;51.132;5.360;2023-04-03T15:13:38;3.72;;;1.70;;
38621;SDS011;24380;51.132;5.360;2023-04-03T15:16:11;4.35;;;1.70;;
38621;SDS011;24380;51.132;5.360;2023-04-03T15:18:43;3.17;;;1.52;;
38621;SDS011;24380;51.132;5.360;2023-04-03T15:21:11;2.70;;;1.70;;
38621;SDS011;24380;51.132;5.360;2023-04-03T15:23:39;4.78;;;1.75;;
38621;SDS011;24380;51.132;5.360;2023-04-03T15:26:07;6.33;;;1.90;;
38621;SDS011;24380;51.132;5.360;2023-04-03T15:28:40;3.83;;;1.75;;
38621;SDS011;24380;51.132;5.360;2023-04-03T15:31:07;3.60;;;1.72;;
38621;SDS011;24380;51.132;5.360;2023-04-03T15:33:35;4.17;;;1.92;;
38621;SDS011;24380;51.132;5.360;2023-04-03T15:36:03;3.65;;;1.80;;
38621;SDS011;24380;51.132;5.360;2023-04-03T15:38:31;4.92;;;2.05;;
38621;SDS011;24380;51.132;5.360;2023-04-03T15:40:59;3.42;;;1.80;;
38621;SDS011;24380;51.132;5.360;2023-04-03T15:43:27;2.52;;;1.62;;
38621;SDS011;24380;51.132;5.360;2023-04-03T15:45:59;2.58;;;1.77;;
38621;SDS011;24380;51.132;5.360;2023-04-03T15:48:25;4.85;;;1.75;;
38621;SDS011;24380;51.132;5.360;2023-04-03T15:50:54;2.55;;;1.60;;
38621;SDS011;24380;51.132;5.360;2023-04-03T15:53:22;4.17;;;1.50;;
38621;SDS011;24380;51.132;5.360;2023-04-03T15:55:49;3.25;;;1.77;;
38621;SDS011;24380;51.132;5.360;2023-04-03T15:58:17;2.75;;;1.55;;
38621;SDS011;24380;51.132;5.360;2023-04-03T16:00:44;3.20;;;1.50;;
38621;SDS011;24380;51.132;5.360;2023-04-03T16:03:16;3.60;;;1.60;;
38621;SDS011;24380;51.132;5.360;2023-04-03T16:05:42;3.98;;;1.80;;
38621;SDS011;24380;51.132;5.360;2023-04-03T16:08:10;3.52;;;1.70;;
38621;SDS011;24380;51.132;5.360;2023-04-03T16:10:39;2.75;;;1.40;;
38621;SDS011;24380;51.132;5.360;2023-04-03T16:13:07;3.92;;;1.55;;
38621;SDS011;24380;51.132;5.360;2023-04-03T16:15:34;5.67;;;1.92;;
38621;SDS011;24380;51.132;5.360;2023-04-03T16:18:03;3.83;;;1.80;;
38621;SDS011;24380;51.132;5.360;2023-04-03T16:20:31;3.72;;;1.77;;
38621;SDS011;24380;51.132;5.360;2023-04-03T16:22:59;2.62;;;1.67;;
38621;SDS011;24380;51.132;5.360;2023-04-03T16:25:27;2.98;;;1.80;;
38621;SDS011;24380;51.132;5.360;2023-04-03T16:27:56;2.55;;;1.60;;
38621;SDS011;24380;51.132;5.360;2023-04-03T16:30:24;2.75;;;1.60;;
38621;SDS011;24380;51.132;5.360;2023-04-03T16:32:52;2.25;;;1.40;;
38621;SDS011;24380;51.132;5.360;2023-04-03T16:35:21;4.08;;;1.60;;
38621;SDS011;24380;51.132;5.360;2023-04-03T16:37:49;4.95;;;2.15;;
38621;SDS011;24380;51.132;5.360;2023-04-03T16:40:17;2.77;;;1.55;;
38621;SDS011;24380;51.132;5.360;2023-04-03T16:42:44;3.47;;;1.60;;